South Harrison Township, New Jersey
Current Conditions -  °F | °C
As of 10:54 PM on Monday 22 Dec 2014 (Local Time) from KPHL Reporting Station
Haze Haze  
Wind Chill: 39°   Ceiling: 5500
Heat Index: 43°   Visibility: 5mi
Dew Point: 40°   Wind: 7mph
Humidity: 89%   Direction: 50°NE
Pressure: 30.14"   Gusts: NA
Location:  39.7176°N, 75.2231°W
Report Text: KPHL 230354Z 05006KT 5SM BR FEW038 BKN055 OVC065 06/04 A3014 RMK AO2 RAE09 SLP204 P0000 T00610044 $
Loading
Personal Weather Stations






























Interactive Weather Map New forecast layout! Learn more

10-Day Weather Forecast

Advertisements
Track Severe Weather on mobile